Time;durP1;ratioP1;P1;durP2;ratioP2;P2;SDS_P1;SDS_P2;PMS_P1;PMS_P2;Temp;Humidity;BMP_temperature;BMP_pressure;BME280_temperature;BME280_humidity;BME280_pressure;Samples;Min_cycle;Max_cycle;Signal;HPM_P1;HPM_P2
2022/04/09 00:01:04;;;;;;;19.12;10.38;;;;;;;1.68;63.25;98747.56;1679557;82;20965;-80
2022/04/09 00:03:30;;;;;;;22.45;10.58;;;;;;;1.67;63.31;98740.36;1612772;84;5001251;-79
2022/04/09 00:05:56;;;;;;;21.15;11.33;;;;;;;1.65;63.26;98737.83;1683437;82;20954;-81
2022/04/09 00:08:28;;;;;;;20.88;9.98;;;;;;;1.68;63.42;98734.83;1678299;82;20899;-82
2022/04/09 00:10:54;;;;;;;18.67;9.98;;;;;;;1.67;63.38;98739.08;1680030;82;20969;-80
2022/04/09 00:13:19;;;;;;;22.50;10.10;;;;;;;1.61;63.46;98728.52;1692481;82;20898;-80
2022/04/09 00:15:45;;;;;;;20.07;10.37;;;;;;;1.55;63.48;98722.25;1693729;84;21240;-81
2022/04/09 00:18:16;;;;;;;20.10;9.23;;;;;;;1.57;63.72;98731.12;1698376;83;20972;-81
2022/04/09 00:20:43;;;;;;;18.90;9.80;;;;;;;1.62;63.67;98729.37;1708853;82;21090;-79
2022/04/09 00:23:10;;;;;;;23.67;10.58;;;;;;;1.62;63.65;98728.94;1695079;82;22838;-79
2022/04/09 00:25:37;;;;;;;20.20;9.40;;;;;;;1.62;63.67;98734.03;1673525;84;21099;-80
2022/04/09 00:28:03;;;;;;;;;;;;;;;1.64;63.63;98722.55;1679384;82;21598;-80
2022/04/09 00:30:30;;;;;;;16.02;9.23;;;;;;;1.64;63.98;98722.13;1705966;82;20113;-80
2022/04/09 00:32:56;;;;;;;21.80;10.15;;;;;;;1.62;63.69;98725.55;1710276;82;21312;-81
2022/04/09 00:35:22;;;;;;;21.93;10.85;;;;;;;1.61;63.80;98731.50;1730695;82;28626;-81
2022/04/09 00:37:56;;;;;;;20.72;10.45;;;;;;;1.63;63.81;98738.27;1715399;82;20899;-80
2022/04/09 00:40:25;;;;;;;21.57;10.40;;;;;;;1.64;63.86;98738.68;1676427;82;20938;-79
2022/04/09 00:42:52;;;;;;;22.15;10.25;;;;;;;1.66;63.94;98745.03;1674009;82;21620;-79
2022/04/09 00:45:19;;;;;;;20.82;10.13;;;;;;;1.68;63.98;98745.02;1674837;84;20927;-79
2022/04/09 00:47:45;;;;;;;23.02;11.53;;;;;;;1.73;64.11;98735.20;1677949;82;21451;-79
2022/04/09 00:50:12;;;;;;;19.90;9.58;;;;;;;1.79;64.16;98742.77;1674309;82;20962;-80
2022/04/09 00:52:48;;;;;;;17.05;9.08;;;;;;;1.84;64.20;98733.38;1673073;83;20953;-81
2022/04/09 00:56:12;;;;;;;18.55;9.93;;;;;;;1.89;64.17;98742.25;1673805;82;20890;-79
2022/04/09 00:57:51;;;;;;;21.55;11.12;;;;;;;1.92;64.24;98735.41;1670517;82;20890;-79
2022/04/09 01:00:19;;;;;;;18.65;9.73;;;;;;;1.97;64.27;98743.00;1674450;84;21042;-79
2022/04/09 01:02:45;;;;;;;22.82;10.90;;;;;;;2.01;64.36;98743.81;1672166;82;21338;-80
2022/04/09 01:05:12;;;;;;;;;;;;;;;2.04;64.34;98750.16;1711028;83;21364;-80
2022/04/09 01:07:39;;;;;;;18.00;8.73;;;;;;;2.06;64.80;98748.00;1734869;82;20443;-82
2022/04/09 01:10:10;;;;;;;21.52;10.50;;;;;;;2.09;64.51;98749.64;1731764;82;20945;-83
2022/04/09 01:12:37;;;;;;;21.77;9.93;;;;;;;2.13;64.55;98747.46;1690600;83;21371;-82
2022/04/09 01:15:06;;;;;;;22.93;9.60;;;;;;;2.18;64.58;98748.25;1683148;83;21363;-80
2022/04/09 01:17:38;;;;;;;21.75;9.00;;;;;;;2.22;64.64;98757.55;1687757;82;20973;-83
2022/04/09 01:20:26;;;;;;;18.10;9.70;;;;;;;2.25;64.65;98759.63;1711107;82;20949;-80
2022/04/09 01:22:51;;;;;;;24.35;9.78;;;;;;;2.31;64.70;98757.44;1711131;83;20965;-80
2022/04/09 01:25:26;;;;;;;20.57;9.48;;;;;;;2.37;64.76;98761.62;1686393;82;21619;-81
2022/04/09 01:27:52;;;;;;;17.25;8.83;;;;;;;2.42;64.81;98773.45;1681135;83;21148;-80
2022/04/09 01:30:19;;;;;;;20.05;9.05;;;;;;;2.46;64.84;98780.20;1680918;85;21044;-80
2022/04/09 01:32:46;;;;;;;18.30;9.03;;;;;;;2.50;64.89;98783.13;1692371;82;21099;-83
2022/04/09 01:35:12;;;;;;;20.90;9.50;;;;;;;2.53;64.94;98785.64;1689712;83;21392;-81
2022/04/09 01:37:38;;;;;;;19.87;9.53;;;;;;;2.58;64.96;98793.23;1710187;83;20926;-81
2022/04/09 01:40:05;;;;;;;16.32;9.15;;;;;;;2.60;64.98;98801.24;1687348;82;20886;-82
2022/04/09 01:42:31;;;;;;;18.35;8.33;;;;;;;2.60;65.01;98799.16;1711411;83;20969;-80
2022/04/09 01:44:58;;;;;;;15.75;8.75;;;;;;;2.62;65.07;98798.67;1711338;83;20938;-80
2022/04/09 01:47:24;;;;;;;15.43;8.93;;;;;;;2.64;65.07;98801.62;1712193;82;20953;-80
2022/04/09 01:49:50;;;;;;;16.67;9.20;;;;;;;2.64;65.12;98806.72;1710316;82;21000;-80
2022/04/09 01:52:16;;;;;;;14.80;8.28;;;;;;;2.66;65.16;98813.08;1682903;83;20953;-81
2022/04/09 01:54:42;;;;;;;17.12;8.43;;;;;;;2.68;65.20;98807.95;1685520;82;20941;-81
2022/04/09 01:57:08;;;;;;;14.50;8.70;;;;;;;2.72;65.26;98815.98;1689455;83;20878;-81
2022/04/09 01:59:34;;;;;;;15.10;8.00;;;;;;;2.76;65.26;98809.98;1683009;83;20882;-81
2022/04/09 02:02:00;;;;;;;19.23;7.58;;;;;;;2.77;65.32;98808.67;1700635;82;20957;-80
2022/04/09 02:04:26;;;;;;;17.60;8.38;;;;;;;2.79;65.32;98815.04;1701488;82;20961;-81
2022/04/09 02:06:52;;;;;;;14.55;7.72;;;;;;;2.80;65.36;98816.73;1699929;83;20922;-82
2022/04/09 02:09:18;;;;;;;15.30;8.48;;;;;;;2.82;65.41;98820.95;1698464;82;20966;-80
2022/04/09 02:11:44;;;;;;;14.43;7.13;;;;;;;2.84;65.40;98814.11;1682813;82;20945;-81
2022/04/09 02:14:12;;;;;;;17.20;7.95;;;;;;;2.85;65.44;98820.91;1695629;83;20961;-80
2022/04/09 02:16:39;;;;;;;14.63;8.00;;;;;;;2.87;65.41;98832.38;1694246;82;20946;-81
2022/04/09 02:19:06;;;;;;;17.07;8.13;;;;;;;2.87;65.44;98836.20;1682962;83;21405;-82
2022/04/09 02:21:32;;;;;;;14.93;8.08;;;;;;;2.88;65.49;98840.44;1683082;83;26368;-78
2022/04/09 02:23:58;;;;;;;16.07;8.38;;;;;;;2.87;65.56;98838.31;1692011;82;20925;-79
2022/04/09 02:26:24;;;;;;;17.20;7.87;;;;;;;2.90;65.60;98845.09;1711139;83;20950;-82
2022/04/09 02:28:50;;;;;;;15.00;7.50;;;;;;;2.90;65.60;98848.92;1702841;82;21016;-82
2022/04/09 02:31:17;;;;;;;11.00;7.00;;;;;;;2.91;65.60;98848.91;1683963;83;20933;-79
2022/04/09 02:33:46;;;;;;;16.05;7.03;;;;;;;2.91;65.65;98843.80;1680122;83;20937;-82
2022/04/09 02:36:13;;;;;;;14.15;7.20;;;;;;;2.92;65.67;98842.09;1690759;82;20925;-82
2022/04/09 02:38:39;;;;;;;14.95;6.65;;;;;;;2.93;65.68;98842.50;1694815;82;20945;-82
2022/04/09 02:41:08;;;;;;;13.88;6.65;;;;;;;2.94;65.74;98848.86;1696763;82;20962;-83
2022/04/09 02:43:37;;;;;;;8.28;6.25;;;;;;;2.95;65.73;98842.89;1688347;82;20952;-81
2022/04/09 02:46:03;;;;;;;13.45;6.50;;;;;;;2.95;65.76;98848.42;1696923;82;20878;-80
2022/04/09 02:48:33;;;;;;;10.53;6.05;;;;;;;2.95;65.78;98853.10;1732112;82;20929;-82
2022/04/09 02:50:58;;;;;;;13.95;6.55;;;;;;;2.96;65.78;98852.23;1682968;83;20954;-82
2022/04/09 02:53:25;;;;;;;11.30;5.90;;;;;;;2.97;65.81;98853.92;1687760;82;20981;-81
2022/04/09 02:55:51;;;;;;;15.60;6.55;;;;;;;2.97;65.81;98856.91;1697032;82;21559;-80
2022/04/09 02:58:17;;;;;;;9.98;5.37;;;;;;;2.97;65.86;98861.59;1710164;83;21120;-80
2022/04/09 03:00:44;;;;;;;11.08;5.03;;;;;;;2.97;65.90;98863.30;1709186;82;21060;-79
2022/04/09 03:03:10;;;;;;;8.38;4.92;;;;;;;2.97;65.90;98865.41;1703708;82;21116;-81
2022/04/09 03:05:36;;;;;;;12.93;5.67;;;;;;;2.97;65.90;98869.67;1676519;84;20899;-80
2022/04/09 03:08:03;;;;;;;11.18;5.47;;;;;;;2.96;65.97;98874.37;1694137;82;21147;-80
2022/04/09 03:10:29;;;;;;;13.35;5.00;;;;;;;2.95;66.00;98873.52;1704359;82;26296;-81
2022/04/09 03:12:55;;;;;;;10.03;5.43;;;;;;;2.94;66.00;98872.27;1693972;83;20875;-79
2022/04/09 03:15:21;;;;;;;;;;;;;;;2.92;66.00;98865.91;1697080;82;21108;-80
2022/04/09 03:17:51;;;;;;;16.87;6.10;;;;;;;2.91;66.32;98879.53;1694958;83;20184;-80
2022/04/09 03:20:17;;;;;;;12.80;5.47;;;;;;;2.90;66.09;98879.13;1702018;82;21636;-80
2022/04/09 03:22:48;;;;;;;7.05;4.72;;;;;;;2.87;66.13;98877.88;1676131;84;21112;-80
2022/04/09 03:25:15;;;;;;;8.95;4.72;;;;;;;2.87;66.16;98884.70;1689895;82;21167;-80
2022/04/09 03:27:42;;;;;;;10.78;5.12;;;;;;;2.87;66.09;98885.97;1696270;82;21088;-80
2022/04/09 03:30:10;;;;;;;9.40;5.33;;;;;;;2.83;66.10;98889.00;1697515;82;21049;-80
2022/04/09 03:32:38;;;;;;;9.25;5.33;;;;;;;2.81;66.16;98901.36;1733596;82;21050;-80
2022/04/09 03:35:06;;;;;;;9.20;4.87;;;;;;;2.79;66.17;98905.21;1684451;83;20953;-79
2022/04/09 03:37:36;;;;;;;10.13;5.20;;;;;;;2.75;66.24;98906.54;1690414;82;20937;-79
2022/04/09 03:40:09;;;;;;;12.27;6.10;;;;;;;2.72;66.24;98900.20;1705229;82;20993;-80
2022/04/09 03:42:35;;;;;;;11.93;4.90;;;;;;;2.70;66.25;98910.42;1704436;84;21064;-81
2022/04/09 03:45:01;;;;;;;7.33;5.08;;;;;;;2.66;66.21;98912.59;1704084;84;20879;-79
2022/04/09 03:47:27;;;;;;;7.00;4.80;;;;;;;2.61;66.27;98914.36;1682315;82;21586;-79
2022/04/09 03:49:53;;;;;;;7.17;4.40;;;;;;;2.58;66.33;98920.36;1684833;82;20902;-79
2022/04/09 03:52:19;;;;;;;9.57;4.90;;;;;;;2.55;66.35;98922.95;1688069;84;21031;-78
2022/04/09 03:54:45;;;;;;;10.33;4.83;;;;;;;2.52;66.31;98930.64;1675646;84;22116;-78
2022/04/09 03:57:11;;;;;;;10.05;4.42;;;;;;;2.48;66.33;98925.58;1675611;85;20926;-78
2022/04/09 03:59:38;;;;;;;7.33;4.65;;;;;;;2.46;66.40;98942.18;1674630;82;21042;-81
2022/04/09 04:02:04;;;;;;;4.75;3.77;;;;;;;2.43;66.38;98938.38;1681617;84;21081;-79
2022/04/09 04:04:30;;;;;;;10.35;4.83;;;;;;;2.41;66.47;98941.81;1693280;82;21057;-79
2022/04/09 04:06:56;;;;;;;8.20;4.60;;;;;;;2.39;66.44;98942.26;1694552;82;20926;-79
2022/04/09 04:09:22;;;;;;;9.23;4.13;;;;;;;2.37;66.52;98945.25;1685335;83;20992;-79
2022/04/09 04:11:48;;;;;;;8.70;4.83;;;;;;;2.34;66.51;98943.58;1687374;84;21013;-79
2022/04/09 04:14:13;;;;;;;6.97;4.33;;;;;;;2.33;66.49;98954.20;1694815;82;21037;-80
2022/04/09 04:16:40;;;;;;;7.42;4.17;;;;;;;2.30;66.53;98951.69;1686466;84;21667;-80
2022/04/09 04:19:06;;;;;;;9.85;4.33;;;;;;;2.29;66.56;98948.72;1678926;83;21029;-80
2022/04/09 04:21:37;;;;;;;7.47;4.30;;;;;;;2.28;66.59;98955.95;1662166;84;21629;-80
2022/04/09 04:24:04;;;;;;;8.95;5.00;;;;;;;2.27;66.62;98969.99;1682282;82;21057;-79
2022/04/09 04:26:30;;;;;;;9.80;4.42;;;;;;;2.23;66.63;98967.90;1665611;84;20998;-80
2022/04/09 04:28:58;;;;;;;7.70;4.00;;;;;;;2.24;66.69;98973.84;1661095;86;21427;-80
2022/04/09 04:31:24;;;;;;;5.43;3.57;;;;;;;2.25;66.78;98972.56;1666908;82;20942;-80
2022/04/09 04:33:50;;;;;;;8.15;5.17;;;;;;;2.26;66.81;98982.33;1666982;83;21044;-80
2022/04/09 04:36:16;;;;;;;7.58;4.33;;;;;;;2.28;66.84;98987.83;1663350;82;21033;-80
2022/04/09 04:38:42;;;;;;;6.60;3.75;;;;;;;2.32;66.87;98987.37;1667038;84;21466;-79
2022/04/09 04:41:08;;;;;;;5.95;3.50;;;;;;;2.32;66.95;98988.22;1666846;82;21057;-79
2022/04/09 04:43:34;;;;;;;7.62;3.95;;;;;;;2.37;66.97;99001.36;1663193;84;21512;-79
2022/04/09 04:46:01;;;;;;;7.62;3.92;;;;;;;2.39;67.01;99009.42;1677175;82;21523;-79
2022/04/09 04:48:27;;;;;;;7.47;3.92;;;;;;;2.42;67.03;99004.72;1692740;82;21553;-79
2022/04/09 04:50:53;;;;;;;11.05;4.90;;;;;;;2.44;67.06;99007.67;1680890;84;21593;-79
2022/04/09 04:53:23;;;;;;;5.05;4.22;;;;;;;2.46;67.11;99017.44;1694106;82;21545;-79
2022/04/09 04:55:49;;;;;;;8.80;4.30;;;;;;;2.49;67.13;99021.23;1694801;84;21533;-79
2022/04/09 04:58:19;;;;;;;6.90;4.75;;;;;;;2.52;67.24;99026.31;1681224;82;21502;-80
2022/04/09 05:00:45;;;;;;;;;;;;;;;2.59;67.26;99033.05;1695575;84;21350;-80
2022/04/09 05:03:11;;;;;;;8.73;5.62;;;;;;;2.62;67.72;99035.53;1685485;82;20494;-80
2022/04/09 05:05:37;;;;;;;10.90;4.63;;;;;;;2.68;67.46;99037.19;1698024;83;20998;-80
2022/04/09 05:08:04;;;;;;;9.10;4.20;;;;;;;2.76;67.49;99042.22;1707519;83;22346;-79
2022/04/09 05:10:30;;;;;;;;;;;;;;;2.85;67.51;99037.02;1699628;82;21542;-79
2022/04/09 05:12:58;;;;;;;4.20;3.33;;;;;;;2.92;67.92;99048.44;1701301;83;20262;-79
2022/04/09 05:15:24;;;;;;;10.05;3.37;;;;;;;3.00;67.64;99053.46;1693281;82;21318;-79
2022/04/09 05:17:50;;;;;;;4.37;3.00;;;;;;;3.10;67.58;99050.38;1707967;82;21060;-79
2022/04/09 05:20:16;;;;;;;5.37;3.05;;;;;;;3.17;67.56;99063.46;1712906;82;21533;-78
2022/04/09 05:22:46;;;;;;;4.05;2.75;;;;;;;3.25;67.68;99066.78;1705305;82;22260;-79
2022/04/09 05:25:16;;;;;;;5.65;2.55;;;;;;;3.36;67.72;99067.94;1701047;82;21489;-79
2022/04/09 05:27:45;;;;;;;6.28;2.33;;;;;;;3.46;67.74;99079.30;1703772;82;20989;-79
2022/04/09 05:30:11;;;;;;;3.90;2.58;;;;;;;3.57;67.80;99083.86;1714808;82;21053;-79
2022/04/09 05:32:39;;;;;;;4.83;2.27;;;;;;;3.72;67.79;99086.63;1707152;82;21592;-80
2022/04/09 05:35:09;;;;;;;7.50;2.65;;;;;;;3.93;67.93;99088.05;1708620;82;20982;-79
2022/04/09 05:37:35;;;;;;;4.42;2.62;;;;;;;4.21;68.04;99091.04;1701397;82;20941;-80
2022/04/09 05:40:05;;;;;;;5.47;2.52;;;;;;;4.50;68.10;99094.00;1708475;82;20981;-80
2022/04/09 05:42:30;;;;;;;3.27;2.30;;;;;;;4.72;67.98;99091.91;1708073;82;20945;-79
2022/04/09 05:44:56;;;;;;;5.40;2.50;;;;;;;4.88;67.94;99094.62;1706675;82;21597;-79
2022/04/09 05:47:24;;;;;;;3.90;2.20;;;;;;;5.01;67.95;99100.38;1701519;82;21413;-79
2022/04/09 05:49:50;;;;;;;4.50;2.20;;;;;;;5.11;67.90;99107.02;1706941;82;21544;-79
2022/04/09 05:52:16;;;;;;;4.37;2.13;;;;;;;5.23;67.98;99105.92;1706871;82;21412;-79
2022/04/09 05:54:43;;;;;;;5.50;2.53;;;;;;;5.38;67.95;99119.73;1700613;82;21072;-79
2022/04/09 05:57:09;;;;;;;6.12;2.05;;;;;;;5.49;67.93;99126.78;1700236;83;21524;-79
2022/04/09 05:59:35;;;;;;;3.65;2.10;;;;;;;5.58;68.03;99126.61;1697510;82;21562;-79
2022/04/09 06:02:04;;;;;;;6.12;2.30;;;;;;;5.77;68.11;99128.78;1704655;82;21639;-79
2022/04/09 06:04:29;;;;;;;4.67;1.90;;;;;;;5.92;68.04;99136.19;1710774;82;21565;-79
2022/04/09 06:06:55;;;;;;;4.47;2.10;;;;;;;6.04;68.01;99142.79;1664406;84;20965;-79
2022/04/09 06:09:22;;;;;;;4.13;2.10;;;;;;;6.17;68.02;99152.77;1669778;84;21589;-79
2022/04/09 06:11:48;;;;;;;4.58;2.00;;;;;;;6.22;67.85;99156.52;1661923;84;21481;-79
2022/04/09 06:14:15;;;;;;;4.37;2.10;;;;;;;6.24;67.90;99157.30;1645826;84;21153;-79
2022/04/09 06:16:43;;;;;;;5.47;1.85;;;;;;;6.32;67.92;99161.82;1672149;84;21645;-80
2022/04/09 06:19:10;;;;;;;4.17;2.25;;;;;;;6.41;67.93;99165.47;1665538;84;21073;-79
2022/04/09 06:21:35;;;;;;;4.07;1.80;;;;;;;6.50;67.92;99170.84;1670320;83;20986;-79
2022/04/09 06:24:02;;;;;;;4.97;2.13;;;;;;;6.60;67.95;99168.03;1676720;84;20978;-79
2022/04/09 06:26:29;;;;;;;3.83;1.87;;;;;;;6.77;67.96;99179.16;1661025;84;21038;-79
2022/04/09 06:28:55;;;;;;;5.92;2.10;;;;;;;6.95;67.94;99180.02;1669388;84;21041;-79
2022/04/09 06:31:22;;;;;;;6.53;1.87;;;;;;;7.06;67.83;99187.91;1666699;84;21102;-79
2022/04/09 06:33:48;;;;;;;5.90;1.95;;;;;;;7.15;67.75;99174.39;1666672;83;21094;-79
2022/04/09 06:36:14;;;;;;;4.40;1.47;;;;;;;7.12;67.77;99183.45;1667384;84;21129;-79
2022/04/09 06:38:40;;;;;;;5.67;2.03;;;;;;;7.21;67.76;99185.80;1670040;83;21117;-79
2022/04/09 06:41:06;;;;;;;5.90;1.80;;;;;;;7.41;67.89;99184.42;1670937;84;21106;-79
2022/04/09 06:43:33;;;;;;;4.03;2.00;;;;;;;7.75;67.96;99189.52;1653183;84;21100;-80
2022/04/09 06:45:59;;;;;;;4.78;1.80;;;;;;;8.12;67.93;99186.73;1666715;83;133445;-80
2022/04/09 06:48:25;;;;;;;4.17;1.73;;;;;;;8.46;67.68;99193.02;1667999;84;21081;-80
2022/04/09 06:50:51;;;;;;;3.77;1.63;;;;;;;8.59;67.46;99191.31;1668459;84;21143;-80
2022/04/09 06:53:18;;;;;;;5.15;1.87;;;;;;;8.59;67.55;99198.20;1673960;84;21041;-78
2022/04/09 06:55:44;;;;;;;6.70;2.13;;;;;;;8.75;67.54;99195.55;1696695;84;20946;-79
2022/04/09 06:58:10;;;;;;;5.20;1.70;;;;;;;9.00;67.58;99202.48;1676246;84;20950;-79
2022/04/09 07:00:37;;;;;;;2.90;1.47;;;;;;;9.09;67.36;99210.77;1662095;84;21106;-79
2022/04/09 07:03:03;;;;;;;4.00;1.72;;;;;;;9.18;67.31;99214.34;1666228;84;21077;-79
2022/04/09 07:05:29;;;;;;;4.77;1.67;;;;;;;9.28;67.09;99212.30;1676435;82;21062;-78
2022/04/09 07:07:57;;;;;;;4.75;1.32;;;;;;;9.32;67.14;99217.75;1696659;82;21160;-80
2022/04/09 07:10:23;;;;;;;7.10;1.60;;;;;;;9.46;67.27;99214.69;1695810;82;20997;-79
2022/04/09 07:12:49;;;;;;;6.87;1.92;;;;;;;9.66;67.12;99225.63;1701458;82;21058;-79
2022/04/09 07:15:16;;;;;;;4.55;1.57;;;;;;;9.74;66.93;99221.88;1704049;82;21028;-84
2022/04/09 07:17:42;;;;;;;9.18;2.00;;;;;;;9.84;67.06;99232.28;1691894;82;21128;-84
2022/04/09 07:20:10;;;;;;;4.62;1.47;;;;;;;10.27;67.49;99227.72;1701673;82;21080;-78
2022/04/09 07:22:38;;;;;;;3.27;1.27;;;;;;;10.69;66.85;99241.64;1693849;82;20997;-77
2022/04/09 07:25:06;;;;;;;5.12;1.60;;;;;;;10.94;66.61;99239.76;1697711;82;21124;-77
2022/04/09 07:27:38;;;;;;;3.85;1.47;;;;;;;11.02;66.19;99244.63;1695888;82;20954;-76
2022/04/09 07:30:08;;;;;;;6.83;1.92;;;;;;;11.01;65.96;99250.70;1693383;82;20902;-76
2022/04/09 07:32:34;;;;;;;6.47;2.05;;;;;;;10.86;65.67;99254.31;1690929;82;20954;-76
2022/04/09 07:35:04;;;;;;;4.80;1.87;;;;;;;10.66;65.67;99257.27;1683395;82;20934;-76
2022/04/09 07:37:31;;;;;;;5.72;1.90;;;;;;;10.61;65.71;99262.16;1704443;82;20898;-75
2022/04/09 07:39:57;;;;;;;;;;;;;;;10.52;65.60;99265.09;1679364;82;20959;-75
2022/04/09 07:42:23;;;;;;;7.30;1.77;;;;;;;10.45;65.01;99271.83;1699058;82;20207;-75
2022/04/09 07:44:49;;;;;;;6.17;1.95;;;;;;;10.54;65.49;99274.92;1697909;82;21282;-75
2022/04/09 07:47:17;;;;;;;12.88;2.58;;;;;;;10.48;65.21;99289.81;1675547;82;33785;-76
2022/04/09 07:49:44;;;;;;;10.60;7.30;;;;;;;10.67;65.37;99283.51;1696502;82;22306;-75
2022/04/09 07:52:11;;;;;;;5.10;1.65;;;;;;;10.85;64.59;99287.53;1703365;82;21132;-76
2022/04/09 07:54:38;;;;;;;4.58;1.20;;;;;;;10.98;64.68;99280.57;1695973;82;27036;-77
2022/04/09 07:57:05;;;;;;;2.85;1.15;;;;;;;11.05;64.84;99294.95;1700464;82;20955;-77
2022/04/09 07:59:31;;;;;;;;;;;;;;;11.31;64.91;99297.36;1699420;82;21017;-76
2022/04/09 08:01:57;;;;;;;5.42;2.00;;;;;;;11.39;63.76;99290.13;1707180;82;20156;-76
2022/04/09 08:04:23;;;;;;;4.40;1.30;;;;;;;11.35;64.50;99306.69;1695526;82;21570;-77
2022/04/09 08:06:49;;;;;;;3.17;1.22;;;;;;;11.49;64.28;99318.59;1703560;82;20887;-76
2022/04/09 08:09:15;;;;;;;2.70;1.17;;;;;;;11.65;63.91;99319.27;1722340;82;20946;-76
2022/04/09 08:11:41;;;;;;;3.37;1.20;;;;;;;11.62;63.63;99322.82;1704199;82;20961;-76
2022/04/09 08:14:07;;;;;;;3.67;1.17;;;;;;;11.19;63.25;99325.85;1696156;82;20878;-76
2022/04/09 08:16:33;;;;;;;3.83;1.17;;;;;;;10.87;63.10;99340.49;1704782;82;20934;-77
2022/04/09 08:19:01;;;;;;;4.20;1.17;;;;;;;10.81;62.86;99331.67;1683774;82;20929;-76
2022/04/09 08:21:27;;;;;;;5.80;1.25;;;;;;;10.71;63.36;99342.80;1691627;82;21032;-76
2022/04/09 08:24:23;;;;;;;3.20;1.23;;;;;;;10.64;63.24;99350.84;1681569;83;21108;-76
2022/04/09 08:26:49;;;;;;;2.72;1.22;;;;;;;10.48;62.49;99357.00;1691210;82;21120;-77
2022/04/09 08:29:20;;;;;;;5.33;1.23;;;;;;;10.47;62.34;99357.90;1691399;82;20906;-78
2022/04/09 08:31:46;;;;;;;3.83;1.30;;;;;;;10.95;61.41;99350.91;1689223;82;21116;-77
2022/04/09 08:34:19;;;;;;;3.27;1.07;;;;;;;10.94;60.90;99367.78;1679496;82;21069;-76
2022/04/09 08:36:46;;;;;;;4.17;1.27;;;;;;;10.61;61.13;99366.01;1693337;82;21104;-75
2022/04/09 08:39:12;;;;;;;3.45;1.17;;;;;;;10.65;61.04;99383.09;1690935;82;21593;-74
2022/04/09 08:41:42;;;;;;;2.90;1.47;;;;;;;10.60;61.05;99383.26;1688957;82;21120;-74
2022/04/09 08:44:08;;;;;;;3.45;1.55;;;;;;;10.56;60.72;99388.14;1688126;82;21054;-74
2022/04/09 08:46:35;;;;;;;;;;;;;;;10.66;61.09;99389.95;1698235;82;21111;-74
2022/04/09 08:49:05;;;;;;;2.83;0.85;;;;;;;10.78;60.08;99399.02;1702273;82;20244;-75
2022/04/09 08:51:33;;;;;;;1.72;0.75;;;;;;;10.87;60.57;99397.39;1700295;82;21104;-75
2022/04/09 08:54:04;;;;;;;2.17;1.05;;;;;;;10.88;60.59;99397.78;1678294;82;21638;-75
2022/04/09 08:56:35;;;;;;;2.20;1.07;;;;;;;10.80;60.02;99403.68;1699265;82;22130;-75
2022/04/09 08:59:05;;;;;;;4.85;1.30;;;;;;;10.65;59.59;99393.44;1681336;82;21077;-75
2022/04/09 09:01:32;;;;;;;3.47;1.02;;;;;;;10.49;59.56;99407.80;1696450;82;21572;-75
2022/04/09 09:03:59;;;;;;;2.47;0.95;;;;;;;10.32;59.40;99408.86;1683976;84;26479;-82
2022/04/09 09:06:28;;;;;;;4.85;1.00;;;;;;;10.20;59.52;99406.23;1698536;82;21110;-80
2022/04/09 09:09:00;;;;;;;4.60;1.15;;;;;;;10.09;59.31;99407.01;1701546;82;20957;-80
2022/04/09 09:11:28;;;;;;;1.35;0.82;;;;;;;10.03;59.29;99405.47;1691825;82;21065;-83
2022/04/09 09:13:58;;;;;;;3.00;1.52;;;;;;;9.95;59.03;99405.72;1698645;82;21068;-82
2022/04/09 09:16:32;;;;;;;3.42;1.10;;;;;;;9.84;58.48;99414.30;1702633;82;20993;-83
2022/04/09 09:19:05;;;;;;;2.45;0.95;;;;;;;9.69;58.52;99409.62;1701876;82;21080;-84
2022/04/09 09:21:31;;;;;;;4.30;1.47;;;;;;;9.54;58.36;99421.27;1700508;82;21068;-83
2022/04/09 09:24:15;;;;;;;2.80;1.12;;;;;;;9.39;57.67;99410.11;1697133;82;21045;-83
2022/04/09 09:27:00;;;;;;;6.72;2.70;;;;;;;9.22;57.94;99411.94;1697313;82;21073;-82
2022/04/09 09:29:29;;;;;;;4.97;1.45;;;;;;;9.14;57.91;99415.63;1699870;82;22126;-82
2022/04/09 09:31:58;;;;;;;21.85;12.68;;;;;;;9.12;57.99;99423.86;1696700;82;21120;-81
2022/04/09 09:34:24;;;;;;;7.20;4.65;;;;;;;9.19;57.58;99412.03;1701306;82;21084;-82
2022/04/09 09:36:51;;;;;;;5.50;2.72;;;;;;;9.17;57.53;99411.67;1697708;82;21048;-81
2022/04/09 09:39:26;;;;;;;10.32;7.92;;;;;;;9.11;57.39;99419.59;1706726;82;21059;-81
2022/04/09 09:41:58;;;;;;;7.78;3.52;;;;;;;9.14;57.15;99419.50;1702957;82;20950;-81
2022/04/09 09:44:27;;;;;;;3.92;1.30;;;;;;;9.17;57.21;99416.83;1681024;82;21541;-82
2022/04/09 09:46:57;;;;;;;2.50;1.50;;;;;;;9.22;57.05;99428.70;1704372;82;21402;-83
2022/04/09 09:49:24;;;;;;;3.72;1.50;;;;;;;9.25;56.70;99416.16;1698111;82;21600;-82
2022/04/09 09:52:06;;;;;;;8.23;6.03;;;;;;;9.30;56.72;99424.61;1701132;82;28106;-82
2022/04/09 09:54:33;;;;;;;9.20;5.65;;;;;;;9.32;56.53;99425.41;1701418;82;20963;-82
2022/04/09 09:57:00;;;;;;;18.75;12.05;;;;;;;9.39;56.58;99436.36;1701820;82;21132;-82
2022/04/09 09:59:28;;;;;;;35.65;25.70;;;;;;;9.41;56.37;99437.16;1700613;82;21073;-79
2022/04/09 10:01:56;;;;;;;25.00;19.85;;;;;;;9.41;56.30;99434.58;1693184;82;21755;-81
2022/04/09 10:04:22;;;;;;;18.52;16.42;;;;;;;9.43;56.21;99432.80;1689320;82;20906;-81
2022/04/09 10:06:49;;;;;;;;;;;;;;;9.50;56.04;99435.14;1692051;82;20973;-81
2022/04/09 10:09:17;;;;;;;6.42;4.65;;;;;;;9.58;55.39;99426.72;1704289;82;20131;-82
2022/04/09 10:11:49;;;;;;;5.67;5.05;;;;;;;9.65;55.78;99449.32;1694824;82;20956;-79
2022/04/09 10:14:13;;;;;;;10.32;7.97;;;;;;;9.72;55.73;99443.52;1688608;82;21080;-78
2022/04/09 10:16:44;;;;;;;4.20;2.80;;;;;;;9.76;55.39;99445.11;1614103;82;30996;-81
2022/04/09 10:19:11;;;;;;;3.50;1.60;;;;;;;9.79;55.41;99438.56;1627422;86;21070;-81
2022/04/09 10:21:40;;;;;;;6.33;4.70;;;;;;;9.83;55.35;99442.30;1627416;86;21066;-81
2022/04/09 10:24:14;;;;;;;2.87;1.80;;;;;;;9.82;55.45;99438.47;1639195;86;20951;-82
2022/04/09 10:26:41;;;;;;;3.52;2.75;;;;;;;9.88;54.84;99440.83;1637340;86;21659;-82
2022/04/09 10:29:09;;;;;;;4.53;1.20;;;;;;;9.89;55.00;99447.68;1629753;86;24861;-82
2022/04/09 10:31:41;;;;;;;2.65;0.95;;;;;;;9.86;54.77;99449.09;1634493;86;20988;-81
2022/04/09 10:34:16;;;;;;;3.30;0.80;;;;;;;9.83;55.01;99450.48;1631217;85;21110;-81
2022/04/09 10:36:47;;;;;;;3.10;1.15;;;;;;;9.77;54.22;99450.23;1631656;86;21078;-81
2022/04/09 10:39:25;;;;;;;3.37;1.10;;;;;;;9.73;54.27;99443.47;1634197;86;21065;-81
2022/04/09 10:41:57;;;;;;;3.67;1.10;;;;;;;9.85;54.57;99439.66;1635540;86;21114;-81
2022/04/09 10:44:50;;;;;;;2.80;0.93;;;;;;;9.94;54.32;99452.25;1618417;86;21063;-81
2022/04/09 10:47:18;;;;;;;4.67;1.00;;;;;;;9.93;53.62;99458.31;1630097;85;21662;-81
2022/04/09 10:50:08;;;;;;;1.67;1.00;;;;;;;9.78;53.67;99451.08;1635210;86;21099;-81
2022/04/09 10:52:34;;;;;;;2.08;0.90;;;;;;;9.61;53.20;99469.22;1633677;87;21075;-82
2022/04/09 10:55:15;;;;;;;2.53;0.90;;;;;;;9.51;52.82;99463.93;1671222;84;21122;-81
2022/04/09 10:57:43;;;;;;;3.08;1.30;;;;;;;9.42;52.53;99471.09;1675175;84;20931;-81
2022/04/09 11:00:28;;;;;;;3.35;1.17;;;;;;;9.39;53.11;99481.06;1671871;83;21078;-81
2022/04/09 11:03:33;;;;;;;3.35;1.75;;;;;;;9.41;52.86;99493.47;1670443;83;21504;-81
2022/04/09 11:06:44;;;;;;;3.90;1.10;;;;;;;9.44;53.14;99497.25;1667422;83;21106;-81
2022/04/09 11:09:10;;;;;;;3.35;0.90;;;;;;;9.53;53.20;99498.72;1666532;84;20989;-81
2022/04/09 11:11:37;;;;;;;5.97;1.07;;;;;;;9.57;52.67;99491.29;1672481;83;21427;-81
2022/04/09 11:14:03;;;;;;;4.47;1.95;;;;;;;9.58;52.65;99497.70;1665399;84;21038;-81
2022/04/09 11:16:36;;;;;;;3.20;1.10;;;;;;;9.65;52.73;99497.06;1668724;84;22136;-81
2022/04/09 11:19:03;;;;;;;2.30;0.75;;;;;;;9.68;52.60;99508.59;1670252;83;21460;-81
2022/04/09 11:21:30;;;;;;;3.80;0.90;;;;;;;9.68;52.14;99496.98;1675514;84;21073;-81
2022/04/09 11:24:08;;;;;;;2.67;0.85;;;;;;;9.67;52.37;99513.35;1674476;84;21073;-80
2022/04/09 11:26:34;;;;;;;3.55;1.52;;;;;;;9.66;52.04;99510.38;1668855;84;21014;-81
2022/04/09 11:29:11;;;;;;;6.10;1.17;;;;;;;9.68;52.22;99506.45;1667772;83;21118;-83
2022/04/09 11:31:47;;;;;;;2.25;0.80;;;;;;;9.70;52.23;99517.14;1667347;83;21034;-81
2022/04/09 11:34:14;;;;;;;2.12;0.80;;;;;;;9.71;51.97;99515.40;1671465;83;20959;-82
2022/04/09 11:36:40;;;;;;;3.77;0.90;;;;;;;9.70;51.90;99518.42;1673356;83;20978;-81
2022/04/09 11:39:07;;;;;;;2.02;0.70;;;;;;;9.71;51.90;99529.59;1675331;83;21360;-82
2022/04/09 11:41:34;;;;;;;5.30;0.90;;;;;;;9.72;51.99;99531.28;1673190;83;20982;-80
2022/04/09 11:44:00;;;;;;;4.13;1.27;;;;;;;9.75;52.00;99535.06;1672808;83;21017;-82